sensor_id;sensor_type;location;lat;lon;timestamp;P1;durP1;ratioP1;P2;durP2;ratioP2
41446;SDS011;27185;52.040;4.490;2022-12-11T00:01:19;50.38;;;31.23;;
41446;SDS011;27185;52.040;4.490;2022-12-11T00:04:06;51.72;;;31.38;;
41446;SDS011;27185;52.040;4.490;2022-12-11T00:06:51;52.83;;;33.35;;
41446;SDS011;27185;52.040;4.490;2022-12-11T00:09:37;49.55;;;29.92;;
41446;SDS011;27185;52.040;4.490;2022-12-11T00:12:23;52.28;;;31.65;;
41446;SDS011;27185;52.040;4.490;2022-12-11T00:15:08;46.70;;;29.08;;
41446;SDS011;27185;52.040;4.490;2022-12-11T00:17:54;49.53;;;31.52;;
41446;SDS011;27185;52.040;4.490;2022-12-11T00:20:40;47.88;;;29.00;;
41446;SDS011;27185;52.040;4.490;2022-12-11T00:23:26;49.85;;;30.75;;
41446;SDS011;27185;52.040;4.490;2022-12-11T00:26:12;55.78;;;32.03;;
41446;SDS011;27185;52.040;4.490;2022-12-11T00:28:59;48.13;;;29.77;;
41446;SDS011;27185;52.040;4.490;2022-12-11T00:31:44;49.28;;;30.05;;
41446;SDS011;27185;52.040;4.490;2022-12-11T00:34:30;43.38;;;26.40;;
41446;SDS011;27185;52.040;4.490;2022-12-11T00:37:16;39.28;;;26.45;;
41446;SDS011;27185;52.040;4.490;2022-12-11T00:40:01;44.20;;;28.00;;
41446;SDS011;27185;52.040;4.490;2022-12-11T00:42:47;44.75;;;28.02;;
41446;SDS011;27185;52.040;4.490;2022-12-11T00:45:37;45.97;;;29.58;;
41446;SDS011;27185;52.040;4.490;2022-12-11T00:48:24;50.78;;;30.73;;
41446;SDS011;27185;52.040;4.490;2022-12-11T00:51:10;47.63;;;30.70;;
41446;SDS011;27185;52.040;4.490;2022-12-11T00:53:56;46.35;;;30.35;;
41446;SDS011;27185;52.040;4.490;2022-12-11T00:56:41;46.75;;;29.92;;
41446;SDS011;27185;52.040;4.490;2022-12-11T00:59:27;47.63;;;30.58;;
41446;SDS011;27185;52.040;4.490;2022-12-11T01:02:13;41.92;;;27.38;;
41446;SDS011;27185;52.040;4.490;2022-12-11T01:04:58;41.90;;;28.48;;
41446;SDS011;27185;52.040;4.490;2022-12-11T01:07:44;41.30;;;26.63;;
41446;SDS011;27185;52.040;4.490;2022-12-11T01:10:30;43.00;;;27.38;;
41446;SDS011;27185;52.040;4.490;2022-12-11T01:13:16;41.95;;;26.65;;
41446;SDS011;27185;52.040;4.490;2022-12-11T01:16:06;42.95;;;27.08;;
41446;SDS011;27185;52.040;4.490;2022-12-11T01:18:53;41.47;;;26.48;;
41446;SDS011;27185;52.040;4.490;2022-12-11T01:21:38;39.47;;;25.10;;
41446;SDS011;27185;52.040;4.490;2022-12-11T01:24:25;44.00;;;27.67;;
41446;SDS011;27185;52.040;4.490;2022-12-11T01:27:10;43.63;;;26.45;;
41446;SDS011;27185;52.040;4.490;2022-12-11T01:29:56;41.35;;;26.92;;
41446;SDS011;27185;52.040;4.490;2022-12-11T01:32:42;43.08;;;27.27;;
41446;SDS011;27185;52.040;4.490;2022-12-11T01:35:27;42.58;;;27.02;;
41446;SDS011;27185;52.040;4.490;2022-12-11T01:38:13;39.35;;;25.15;;
41446;SDS011;27185;52.040;4.490;2022-12-11T01:40:59;44.00;;;25.83;;
41446;SDS011;27185;52.040;4.490;2022-12-11T01:44:04;39.58;;;26.30;;
41446;SDS011;27185;52.040;4.490;2022-12-11T01:46:50;43.38;;;26.30;;
41446;SDS011;27185;52.040;4.490;2022-12-11T01:49:35;40.83;;;25.80;;
41446;SDS011;27185;52.040;4.490;2022-12-11T01:52:23;37.23;;;23.53;;
41446;SDS011;27185;52.040;4.490;2022-12-11T01:55:09;44.08;;;25.65;;
41446;SDS011;27185;52.040;4.490;2022-12-11T01:57:54;41.35;;;24.63;;
41446;SDS011;27185;52.040;4.490;2022-12-11T02:00:40;48.70;;;27.80;;
41446;SDS011;27185;52.040;4.490;2022-12-11T02:03:26;43.92;;;26.73;;
41446;SDS011;27185;52.040;4.490;2022-12-11T02:09:27;42.38;;;25.00;;
41446;SDS011;27185;52.040;4.490;2022-12-11T02:15:42;51.63;;;28.27;;
41446;SDS011;27185;52.040;4.490;2022-12-11T02:18:47;54.95;;;28.27;;
41446;SDS011;27185;52.040;4.490;2022-12-11T02:21:46;46.38;;;26.98;;
41446;SDS011;27185;52.040;4.490;2022-12-11T02:27:46;48.30;;;26.88;;
41446;SDS011;27185;52.040;4.490;2022-12-11T02:30:41;48.22;;;26.20;;
41446;SDS011;27185;52.040;4.490;2022-12-11T02:33:35;49.42;;;26.42;;
41446;SDS011;27185;52.040;4.490;2022-12-11T02:36:28;44.22;;;26.45;;
41446;SDS011;27185;52.040;4.490;2022-12-11T02:39:18;45.42;;;24.55;;
41446;SDS011;27185;52.040;4.490;2022-12-11T02:42:06;52.90;;;27.65;;
41446;SDS011;27185;52.040;4.490;2022-12-11T02:44:55;47.90;;;28.17;;
41446;SDS011;27185;52.040;4.490;2022-12-11T02:47:44;43.47;;;25.10;;
41446;SDS011;27185;52.040;4.490;2022-12-11T02:50:32;43.25;;;25.23;;
41446;SDS011;27185;52.040;4.490;2022-12-11T02:53:21;48.80;;;27.48;;
41446;SDS011;27185;52.040;4.490;2022-12-11T02:59:08;52.97;;;29.30;;
41446;SDS011;27185;52.040;4.490;2022-12-11T03:01:58;54.35;;;27.88;;
41446;SDS011;27185;52.040;4.490;2022-12-11T03:04:43;54.63;;;30.77;;
41446;SDS011;27185;52.040;4.490;2022-12-11T03:07:31;49.42;;;28.08;;
41446;SDS011;27185;52.040;4.490;2022-12-11T03:10:20;58.25;;;27.30;;
41446;SDS011;27185;52.040;4.490;2022-12-11T03:13:05;52.25;;;27.33;;
41446;SDS011;27185;52.040;4.490;2022-12-11T03:16:06;50.42;;;26.10;;
41446;SDS011;27185;52.040;4.490;2022-12-11T03:25:00;48.53;;;26.52;;
41446;SDS011;27185;52.040;4.490;2022-12-11T03:28:28;46.55;;;25.27;;
41446;SDS011;27185;52.040;4.490;2022-12-11T03:31:42;45.13;;;25.80;;
41446;SDS011;27185;52.040;4.490;2022-12-11T03:34:34;48.33;;;25.40;;
41446;SDS011;27185;52.040;4.490;2022-12-11T03:37:38;40.85;;;23.83;;
41446;SDS011;27185;52.040;4.490;2022-12-11T03:40:25;45.90;;;24.80;;
41446;SDS011;27185;52.040;4.490;2022-12-11T03:43:15;41.05;;;23.90;;
41446;SDS011;27185;52.040;4.490;2022-12-11T03:46:01;50.50;;;26.35;;
41446;SDS011;27185;52.040;4.490;2022-12-11T03:48:47;46.45;;;24.98;;
41446;SDS011;27185;52.040;4.490;2022-12-11T03:51:34;44.67;;;24.95;;
41446;SDS011;27185;52.040;4.490;2022-12-11T03:54:22;45.67;;;25.65;;
41446;SDS011;27185;52.040;4.490;2022-12-11T03:57:08;46.17;;;25.85;;
41446;SDS011;27185;52.040;4.490;2022-12-11T03:59:57;46.78;;;25.48;;
41446;SDS011;27185;52.040;4.490;2022-12-11T04:02:43;47.40;;;24.98;;
41446;SDS011;27185;52.040;4.490;2022-12-11T04:05:50;41.78;;;24.75;;
41446;SDS011;27185;52.040;4.490;2022-12-11T04:08:39;46.70;;;24.13;;
41446;SDS011;27185;52.040;4.490;2022-12-11T04:11:24;44.45;;;23.40;;
41446;SDS011;27185;52.040;4.490;2022-12-11T04:14:19;40.38;;;22.92;;
41446;SDS011;27185;52.040;4.490;2022-12-11T04:17:23;43.00;;;23.33;;
41446;SDS011;27185;52.040;4.490;2022-12-11T04:20:28;39.92;;;22.88;;
41446;SDS011;27185;52.040;4.490;2022-12-11T04:23:32;43.83;;;23.20;;
41446;SDS011;27185;52.040;4.490;2022-12-11T04:26:36;40.92;;;22.35;;
41446;SDS011;27185;52.040;4.490;2022-12-11T04:29:21;42.05;;;23.02;;
41446;SDS011;27185;52.040;4.490;2022-12-11T04:32:07;39.50;;;22.25;;
41446;SDS011;27185;52.040;4.490;2022-12-11T04:34:52;43.88;;;23.27;;
41446;SDS011;27185;52.040;4.490;2022-12-11T04:37:38;40.88;;;22.75;;
41446;SDS011;27185;52.040;4.490;2022-12-11T04:40:24;38.22;;;20.75;;
41446;SDS011;27185;52.040;4.490;2022-12-11T04:43:09;40.65;;;21.58;;
41446;SDS011;27185;52.040;4.490;2022-12-11T04:46:15;40.38;;;21.90;;
41446;SDS011;27185;52.040;4.490;2022-12-11T04:49:03;36.70;;;19.23;;
41446;SDS011;27185;52.040;4.490;2022-12-11T04:51:48;34.58;;;19.88;;
41446;SDS011;27185;52.040;4.490;2022-12-11T04:54:34;33.78;;;19.15;;
41446;SDS011;27185;52.040;4.490;2022-12-11T04:57:20;36.65;;;20.42;;
41446;SDS011;27185;52.040;4.490;2022-12-11T05:00:07;31.55;;;17.80;;
41446;SDS011;27185;52.040;4.490;2022-12-11T05:02:54;35.10;;;18.65;;
41446;SDS011;27185;52.040;4.490;2022-12-11T05:05:40;38.92;;;19.23;;
41446;SDS011;27185;52.040;4.490;2022-12-11T05:08:32;31.98;;;18.40;;
41446;SDS011;27185;52.040;4.490;2022-12-11T05:11:19;30.20;;;17.40;;
41446;SDS011;27185;52.040;4.490;2022-12-11T05:14:04;32.13;;;15.75;;
41446;SDS011;27185;52.040;4.490;2022-12-11T05:16:50;27.60;;;15.18;;
41446;SDS011;27185;52.040;4.490;2022-12-11T05:19:36;29.60;;;15.20;;
41446;SDS011;27185;52.040;4.490;2022-12-11T05:22:21;29.83;;;16.02;;
41446;SDS011;27185;52.040;4.490;2022-12-11T05:25:07;28.27;;;15.77;;
41446;SDS011;27185;52.040;4.490;2022-12-11T05:27:52;24.92;;;15.20;;
41446;SDS011;27185;52.040;4.490;2022-12-11T05:30:38;24.70;;;14.13;;
41446;SDS011;27185;52.040;4.490;2022-12-11T05:33:24;27.40;;;14.50;;
41446;SDS011;27185;52.040;4.490;2022-12-11T05:36:14;21.73;;;13.30;;
41446;SDS011;27185;52.040;4.490;2022-12-11T05:39:02;26.58;;;14.95;;
41446;SDS011;27185;52.040;4.490;2022-12-11T05:41:48;23.08;;;13.50;;
41446;SDS011;27185;52.040;4.490;2022-12-11T05:44:34;24.42;;;14.40;;
41446;SDS011;27185;52.040;4.490;2022-12-11T05:47:20;23.38;;;13.32;;
41446;SDS011;27185;52.040;4.490;2022-12-11T05:50:05;24.30;;;14.02;;
41446;SDS011;27185;52.040;4.490;2022-12-11T05:52:51;29.10;;;15.02;;
41446;SDS011;27185;52.040;4.490;2022-12-11T05:55:37;31.23;;;15.73;;
41446;SDS011;27185;52.040;4.490;2022-12-11T05:58:22;25.90;;;15.35;;
41446;SDS011;27185;52.040;4.490;2022-12-11T06:01:09;24.83;;;14.63;;
41446;SDS011;27185;52.040;4.490;2022-12-11T06:04:00;25.92;;;13.13;;
41446;SDS011;27185;52.040;4.490;2022-12-11T06:06:47;25.48;;;13.93;;
41446;SDS011;27185;52.040;4.490;2022-12-11T06:09:32;28.77;;;15.30;;
41446;SDS011;27185;52.040;4.490;2022-12-11T06:12:18;28.88;;;16.20;;
41446;SDS011;27185;52.040;4.490;2022-12-11T06:15:04;29.83;;;16.90;;
41446;SDS011;27185;52.040;4.490;2022-12-11T06:17:50;32.08;;;16.05;;
41446;SDS011;27185;52.040;4.490;2022-12-11T06:20:36;26.95;;;14.75;;
41446;SDS011;27185;52.040;4.490;2022-12-11T06:23:21;30.30;;;16.88;;
41446;SDS011;27185;52.040;4.490;2022-12-11T06:26:08;33.22;;;17.35;;
41446;SDS011;27185;52.040;4.490;2022-12-11T06:28:54;29.63;;;16.42;;
41446;SDS011;27185;52.040;4.490;2022-12-11T06:31:40;28.80;;;16.08;;
41446;SDS011;27185;52.040;4.490;2022-12-11T06:34:25;29.30;;;16.33;;
41446;SDS011;27185;52.040;4.490;2022-12-11T06:37:11;34.08;;;15.98;;
41446;SDS011;27185;52.040;4.490;2022-12-11T06:39:57;33.13;;;16.83;;
41446;SDS011;27185;52.040;4.490;2022-12-11T06:42:42;37.80;;;18.85;;
41446;SDS011;27185;52.040;4.490;2022-12-11T06:45:28;32.70;;;16.90;;
41446;SDS011;27185;52.040;4.490;2022-12-11T06:48:13;31.77;;;17.02;;
41446;SDS011;27185;52.040;4.490;2022-12-11T06:51:04;32.50;;;17.42;;
41446;SDS011;27185;52.040;4.490;2022-12-11T06:53:54;25.88;;;13.93;;
41446;SDS011;27185;52.040;4.490;2022-12-11T06:56:41;34.10;;;18.15;;
41446;SDS011;27185;52.040;4.490;2022-12-11T06:59:26;33.92;;;18.17;;
41446;SDS011;27185;52.040;4.490;2022-12-11T07:02:12;32.40;;;17.08;;
41446;SDS011;27185;52.040;4.490;2022-12-11T07:05:00;30.60;;;17.40;;
41446;SDS011;27185;52.040;4.490;2022-12-11T07:07:45;33.78;;;17.20;;
41446;SDS011;27185;52.040;4.490;2022-12-11T07:10:31;34.75;;;17.13;;
41446;SDS011;27185;52.040;4.490;2022-12-11T07:13:17;32.88;;;17.80;;
41446;SDS011;27185;52.040;4.490;2022-12-11T07:16:02;30.95;;;17.15;;
41446;SDS011;27185;52.040;4.490;2022-12-11T07:18:54;30.08;;;16.60;;
41446;SDS011;27185;52.040;4.490;2022-12-11T07:21:40;31.67;;;16.45;;
41446;SDS011;27185;52.040;4.490;2022-12-11T07:24:25;31.80;;;15.93;;
41446;SDS011;27185;52.040;4.490;2022-12-11T07:27:11;33.85;;;17.65;;
41446;SDS011;27185;52.040;4.490;2022-12-11T07:29:56;28.35;;;15.80;;
41446;SDS011;27185;52.040;4.490;2022-12-11T07:32:42;32.75;;;17.45;;
41446;SDS011;27185;52.040;4.490;2022-12-11T07:35:28;35.95;;;17.55;;
41446;SDS011;27185;52.040;4.490;2022-12-11T07:38:14;34.20;;;16.48;;
41446;SDS011;27185;52.040;4.490;2022-12-11T07:41:03;32.60;;;16.80;;
41446;SDS011;27185;52.040;4.490;2022-12-11T07:43:50;36.03;;;16.80;;
41446;SDS011;27185;52.040;4.490;2022-12-11T07:46:36;36.17;;;17.48;;
41446;SDS011;27185;52.040;4.490;2022-12-11T07:49:21;32.78;;;17.73;;
41446;SDS011;27185;52.040;4.490;2022-12-11T07:52:07;32.75;;;17.60;;
41446;SDS011;27185;52.040;4.490;2022-12-11T07:54:52;35.50;;;16.83;;
41446;SDS011;27185;52.040;4.490;2022-12-11T07:57:38;35.65;;;17.92;;
41446;SDS011;27185;52.040;4.490;2022-12-11T08:00:23;33.40;;;16.52;;
41446;SDS011;27185;52.040;4.490;2022-12-11T08:03:09;31.55;;;16.83;;
41446;SDS011;27185;52.040;4.490;2022-12-11T08:05:54;33.78;;;19.08;;
41446;SDS011;27185;52.040;4.490;2022-12-11T08:08:40;33.60;;;17.23;;
41446;SDS011;27185;52.040;4.490;2022-12-11T08:11:26;34.75;;;19.08;;
41446;SDS011;27185;52.040;4.490;2022-12-11T08:14:12;34.13;;;17.50;;
41446;SDS011;27185;52.040;4.490;2022-12-11T08:16:58;31.02;;;15.82;;
41446;SDS011;27185;52.040;4.490;2022-12-11T08:19:44;33.28;;;16.55;;
41446;SDS011;27185;52.040;4.490;2022-12-11T08:22:29;28.08;;;15.77;;
41446;SDS011;27185;52.040;4.490;2022-12-11T08:25:15;30.80;;;15.57;;
41446;SDS011;27185;52.040;4.490;2022-12-11T08:28:00;30.77;;;15.25;;
41446;SDS011;27185;52.040;4.490;2022-12-11T08:30:46;26.20;;;15.30;;
41446;SDS011;27185;52.040;4.490;2022-12-11T08:33:31;27.30;;;15.65;;
41446;SDS011;27185;52.040;4.490;2022-12-11T08:36:18;28.30;;;16.00;;
41446;SDS011;27185;52.040;4.490;2022-12-11T08:39:05;27.10;;;15.63;;
41446;SDS011;27185;52.040;4.490;2022-12-11T08:41:50;27.48;;;15.73;;
41446;SDS011;27185;52.040;4.490;2022-12-11T08:44:37;35.08;;;17.08;;
41446;SDS011;27185;52.040;4.490;2022-12-11T08:47:22;23.85;;;15.15;;
41446;SDS011;27185;52.040;4.490;2022-12-11T08:50:08;26.85;;;15.63;;
41446;SDS011;27185;52.040;4.490;2022-12-11T08:52:54;24.83;;;14.77;;
41446;SDS011;27185;52.040;4.490;2022-12-11T08:55:39;27.33;;;15.63;;
41446;SDS011;27185;52.040;4.490;2022-12-11T08:58:26;29.63;;;15.48;;
41446;SDS011;27185;52.040;4.490;2022-12-11T09:01:13;29.63;;;15.90;;
41446;SDS011;27185;52.040;4.490;2022-12-11T09:04:01;31.58;;;15.10;;
41446;SDS011;27185;52.040;4.490;2022-12-11T09:06:47;32.08;;;16.75;;
41446;SDS011;27185;52.040;4.490;2022-12-11T09:09:33;30.98;;;16.77;;
41446;SDS011;27185;52.040;4.490;2022-12-11T09:12:18;33.35;;;18.17;;
41446;SDS011;27185;52.040;4.490;2022-12-11T09:15:04;36.80;;;18.92;;
41446;SDS011;27185;52.040;4.490;2022-12-11T09:17:50;33.65;;;19.50;;
41446;SDS011;27185;52.040;4.490;2022-12-11T09:20:36;33.60;;;18.33;;
41446;SDS011;27185;52.040;4.490;2022-12-11T09:23:21;32.63;;;18.63;;
41446;SDS011;27185;52.040;4.490;2022-12-11T09:26:11;37.97;;;20.23;;
41446;SDS011;27185;52.040;4.490;2022-12-11T09:28:58;39.28;;;20.35;;
41446;SDS011;27185;52.040;4.490;2022-12-11T09:31:47;31.23;;;18.70;;
41446;SDS011;27185;52.040;4.490;2022-12-11T09:34:33;36.10;;;19.42;;
41446;SDS011;27185;52.040;4.490;2022-12-11T09:37:19;40.47;;;21.45;;
41446;SDS011;27185;52.040;4.490;2022-12-11T09:40:04;40.90;;;20.08;;
41446;SDS011;27185;52.040;4.490;2022-12-11T09:42:59;36.53;;;19.80;;
41446;SDS011;27185;52.040;4.490;2022-12-11T09:46:07;39.03;;;18.52;;
41446;SDS011;27185;52.040;4.490;2022-12-11T09:48:55;35.97;;;19.63;;
41446;SDS011;27185;52.040;4.490;2022-12-11T09:51:42;31.40;;;17.98;;
41446;SDS011;27185;52.040;4.490;2022-12-11T09:54:33;35.55;;;18.70;;
41446;SDS011;27185;52.040;4.490;2022-12-11T09:57:25;41.42;;;22.77;;
41446;SDS011;27185;52.040;4.490;2022-12-11T10:03:40;40.65;;;22.23;;
41446;SDS011;27185;52.040;4.490;2022-12-11T10:07:01;43.33;;;23.13;;
41446;SDS011;27185;52.040;4.490;2022-12-11T10:12:56;37.58;;;19.70;;
41446;SDS011;27185;52.040;4.490;2022-12-11T10:16:11;35.75;;;19.88;;
41446;SDS011;27185;52.040;4.490;2022-12-11T10:19:27;40.13;;;22.50;;
41446;SDS011;27185;52.040;4.490;2022-12-11T10:22:19;37.40;;;20.33;;
41446;SDS011;27185;52.040;4.490;2022-12-11T10:25:51;40.25;;;22.77;;
41446;SDS011;27185;52.040;4.490;2022-12-11T10:28:21;46.28;;;24.25;;
41446;SDS011;27185;52.040;4.490;2022-12-11T10:34:10;42.08;;;22.40;;
41446;SDS011;27185;52.040;4.490;2022-12-11T10:36:58;42.00;;;22.75;;
41446;SDS011;27185;52.040;4.490;2022-12-11T10:39:45;41.35;;;22.42;;
41446;SDS011;27185;52.040;4.490;2022-12-11T10:42:30;44.45;;;24.42;;
41446;SDS011;27185;52.040;4.490;2022-12-11T10:45:16;43.60;;;24.08;;
41446;SDS011;27185;52.040;4.490;2022-12-11T10:48:02;49.05;;;25.25;;
41446;SDS011;27185;52.040;4.490;2022-12-11T10:50:57;39.78;;;21.42;;
41446;SDS011;27185;52.040;4.490;2022-12-11T10:53:50;45.33;;;24.08;;
41446;SDS011;27185;52.040;4.490;2022-12-11T10:56:43;47.40;;;24.52;;
41446;SDS011;27185;52.040;4.490;2022-12-11T10:59:33;45.22;;;23.33;;
41446;SDS011;27185;52.040;4.490;2022-12-11T11:02:29;44.20;;;22.95;;
41446;SDS011;27185;52.040;4.490;2022-12-11T11:05:29;35.05;;;19.77;;
41446;SDS011;27185;52.040;4.490;2022-12-11T11:08:20;38.30;;;21.65;;
41446;SDS011;27185;52.040;4.490;2022-12-11T11:11:12;35.22;;;20.35;;
41446;SDS011;27185;52.040;4.490;2022-12-11T11:14:11;38.33;;;20.73;;
41446;SDS011;27185;52.040;4.490;2022-12-11T11:16:59;39.30;;;21.08;;
41446;SDS011;27185;52.040;4.490;2022-12-11T11:19:46;35.03;;;19.92;;
41446;SDS011;27185;52.040;4.490;2022-12-11T11:22:32;42.20;;;22.58;;
41446;SDS011;27185;52.040;4.490;2022-12-11T11:25:23;41.88;;;23.65;;
41446;SDS011;27185;52.040;4.490;2022-12-11T11:28:15;50.35;;;23.88;;
41446;SDS011;27185;52.040;4.490;2022-12-11T11:31:12;49.92;;;26.55;;
41446;SDS011;27185;52.040;4.490;2022-12-11T11:34:05;41.20;;;23.48;;
41446;SDS011;27185;52.040;4.490;2022-12-11T11:36:55;43.50;;;23.30;;
41446;SDS011;27185;52.040;4.490;2022-12-11T11:39:43;44.60;;;24.02;;
41446;SDS011;27185;52.040;4.490;2022-12-11T11:46:07;49.85;;;25.92;;
41446;SDS011;27185;52.040;4.490;2022-12-11T11:51:46;48.55;;;24.75;;
41446;SDS011;27185;52.040;4.490;2022-12-11T11:54:40;44.75;;;25.40;;
41446;SDS011;27185;52.040;4.490;2022-12-11T11:57:50;47.83;;;24.30;;
41446;SDS011;27185;52.040;4.490;2022-12-11T12:00:54;52.67;;;27.92;;
41446;SDS011;27185;52.040;4.490;2022-12-11T12:03:40;49.72;;;26.20;;
41446;SDS011;27185;52.040;4.490;2022-12-11T12:09:16;48.42;;;25.20;;
41446;SDS011;27185;52.040;4.490;2022-12-11T12:15:28;45.55;;;24.67;;
41446;SDS011;27185;52.040;4.490;2022-12-11T12:21:42;38.95;;;21.88;;
41446;SDS011;27185;52.040;4.490;2022-12-11T12:24:36;38.60;;;21.42;;
41446;SDS011;27185;52.040;4.490;2022-12-11T12:27:38;44.13;;;23.50;;
41446;SDS011;27185;52.040;4.490;2022-12-11T12:30:24;41.47;;;21.63;;
41446;SDS011;27185;52.040;4.490;2022-12-11T12:42:52;41.95;;;21.65;;
41446;SDS011;27185;52.040;4.490;2022-12-11T12:45:58;37.35;;;19.95;;
41446;SDS011;27185;52.040;4.490;2022-12-11T12:49:00;34.15;;;18.23;;
41446;SDS011;27185;52.040;4.490;2022-12-11T12:51:48;37.95;;;20.02;;
41446;SDS011;27185;52.040;4.490;2022-12-11T12:54:35;38.50;;;19.58;;
41446;SDS011;27185;52.040;4.490;2022-12-11T12:57:22;33.50;;;17.77;;
41446;SDS011;27185;52.040;4.490;2022-12-11T13:00:08;30.30;;;17.10;;
41446;SDS011;27185;52.040;4.490;2022-12-11T13:02:56;34.70;;;18.33;;
41446;SDS011;27185;52.040;4.490;2022-12-11T13:05:55;34.30;;;19.33;;
41446;SDS011;27185;52.040;4.490;2022-12-11T13:08:47;34.25;;;18.75;;
41446;SDS011;27185;52.040;4.490;2022-12-11T13:11:34;37.08;;;20.08;;
41446;SDS011;27185;52.040;4.490;2022-12-11T13:14:22;35.53;;;19.35;;
41446;SDS011;27185;52.040;4.490;2022-12-11T13:20:09;38.92;;;21.75;;
41446;SDS011;27185;52.040;4.490;2022-12-11T13:26:00;40.35;;;21.67;;
41446;SDS011;27185;52.040;4.490;2022-12-11T13:28:47;38.83;;;21.87;;
41446;SDS011;27185;52.040;4.490;2022-12-11T13:31:35;38.53;;;21.05;;
41446;SDS011;27185;52.040;4.490;2022-12-11T13:34:22;34.63;;;20.48;;
41446;SDS011;27185;52.040;4.490;2022-12-11T13:40:20;34.17;;;19.33;;
41446;SDS011;27185;52.040;4.490;2022-12-11T13:43:17;39.90;;;20.52;;
41446;SDS011;27185;52.040;4.490;2022-12-11T13:46:07;41.10;;;21.00;;
41446;SDS011;27185;52.040;4.490;2022-12-11T13:48:56;34.22;;;19.17;;
41446;SDS011;27185;52.040;4.490;2022-12-11T13:51:50;36.85;;;21.65;;
41446;SDS011;27185;52.040;4.490;2022-12-11T13:54:45;38.13;;;21.55;;
41446;SDS011;27185;52.040;4.490;2022-12-11T13:57:32;34.75;;;18.55;;
41446;SDS011;27185;52.040;4.490;2022-12-11T14:00:20;32.10;;;16.83;;
41446;SDS011;27185;52.040;4.490;2022-12-11T14:03:10;36.80;;;18.73;;
41446;SDS011;27185;52.040;4.490;2022-12-11T14:05:56;34.97;;;18.95;;
41446;SDS011;27185;52.040;4.490;2022-12-11T14:08:42;33.13;;;18.13;;
41446;SDS011;27185;52.040;4.490;2022-12-11T14:11:40;34.50;;;18.70;;
41446;SDS011;27185;52.040;4.490;2022-12-11T14:17:28;34.50;;;18.05;;
41446;SDS011;27185;52.040;4.490;2022-12-11T14:20:18;38.72;;;20.23;;
41446;SDS011;27185;52.040;4.490;2022-12-11T14:23:16;39.45;;;20.02;;
41446;SDS011;27185;52.040;4.490;2022-12-11T14:26:16;35.95;;;19.30;;
41446;SDS011;27185;52.040;4.490;2022-12-11T14:29:04;40.50;;;21.80;;
41446;SDS011;27185;52.040;4.490;2022-12-11T14:31:50;38.55;;;20.48;;
41446;SDS011;27185;52.040;4.490;2022-12-11T14:34:38;36.22;;;19.25;;
41446;SDS011;27185;52.040;4.490;2022-12-11T14:37:29;40.53;;;20.20;;
41446;SDS011;27185;52.040;4.490;2022-12-11T14:40:16;44.42;;;21.15;;
41446;SDS011;27185;52.040;4.490;2022-12-11T14:43:07;38.47;;;20.50;;
41446;SDS011;27185;52.040;4.490;2022-12-11T14:46:09;37.03;;;19.70;;
41446;SDS011;27185;52.040;4.490;2022-12-11T14:49:01;43.05;;;20.50;;
41446;SDS011;27185;52.040;4.490;2022-12-11T14:51:52;38.03;;;20.48;;
41446;SDS011;27185;52.040;4.490;2022-12-11T14:54:43;38.90;;;20.50;;
41446;SDS011;27185;52.040;4.490;2022-12-11T14:57:35;38.35;;;20.02;;
41446;SDS011;27185;52.040;4.490;2022-12-11T15:00:25;39.65;;;20.05;;
41446;SDS011;27185;52.040;4.490;2022-12-11T15:06:02;36.75;;;19.45;;
41446;SDS011;27185;52.040;4.490;2022-12-11T15:12:20;33.25;;;16.75;;
41446;SDS011;27185;52.040;4.490;2022-12-11T15:15:06;26.73;;;15.25;;
41446;SDS011;27185;52.040;4.490;2022-12-11T15:18:00;28.30;;;14.10;;
41446;SDS011;27185;52.040;4.490;2022-12-11T15:20:51;25.58;;;14.73;;
41446;SDS011;27185;52.040;4.490;2022-12-11T15:26:43;28.27;;;15.23;;
41446;SDS011;27185;52.040;4.490;2022-12-11T15:29:31;30.00;;;16.17;;
41446;SDS011;27185;52.040;4.490;2022-12-11T15:32:22;30.50;;;16.92;;
41446;SDS011;27185;52.040;4.490;2022-12-11T15:35:21;36.80;;;18.95;;
41446;SDS011;27185;52.040;4.490;2022-12-11T15:38:23;36.88;;;20.60;;
41446;SDS011;27185;52.040;4.490;2022-12-11T15:41:17;46.53;;;21.83;;
41446;SDS011;27185;52.040;4.490;2022-12-11T15:44:17;47.20;;;24.10;;
41446;SDS011;27185;52.040;4.490;2022-12-11T15:47:15;49.30;;;26.05;;
41446;SDS011;27185;52.040;4.490;2022-12-11T15:50:14;48.30;;;26.23;;
41446;SDS011;27185;52.040;4.490;2022-12-11T15:53:01;48.40;;;25.23;;
41446;SDS011;27185;52.040;4.490;2022-12-11T15:55:47;47.45;;;25.10;;
41446;SDS011;27185;52.040;4.490;2022-12-11T15:58:32;50.92;;;27.25;;
41446;SDS011;27185;52.040;4.490;2022-12-11T16:01:19;56.25;;;29.17;;
41446;SDS011;27185;52.040;4.490;2022-12-11T16:04:05;53.03;;;28.38;;
41446;SDS011;27185;52.040;4.490;2022-12-11T16:06:50;49.05;;;26.38;;
41446;SDS011;27185;52.040;4.490;2022-12-11T16:09:36;54.50;;;27.90;;
41446;SDS011;27185;52.040;4.490;2022-12-11T16:12:21;52.17;;;27.23;;
41446;SDS011;27185;52.040;4.490;2022-12-11T16:15:07;56.42;;;27.60;;
41446;SDS011;27185;52.040;4.490;2022-12-11T16:18:01;53.83;;;24.90;;
41446;SDS011;27185;52.040;4.490;2022-12-11T16:20:48;46.78;;;23.42;;
41446;SDS011;27185;52.040;4.490;2022-12-11T16:23:35;46.50;;;24.35;;
41446;SDS011;27185;52.040;4.490;2022-12-11T16:26:21;38.90;;;21.92;;
41446;SDS011;27185;52.040;4.490;2022-12-11T16:29:06;44.35;;;23.20;;
41446;SDS011;27185;52.040;4.490;2022-12-11T16:31:52;46.25;;;23.00;;
41446;SDS011;27185;52.040;4.490;2022-12-11T16:34:38;39.20;;;20.00;;
41446;SDS011;27185;52.040;4.490;2022-12-11T16:37:23;42.70;;;21.38;;
41446;SDS011;27185;52.040;4.490;2022-12-11T16:40:09;38.83;;;19.80;;
41446;SDS011;27185;52.040;4.490;2022-12-11T16:42:56;41.38;;;20.98;;
41446;SDS011;27185;52.040;4.490;2022-12-11T16:45:41;38.20;;;20.30;;
41446;SDS011;27185;52.040;4.490;2022-12-11T16:48:27;42.95;;;22.58;;
41446;SDS011;27185;52.040;4.490;2022-12-11T16:51:13;42.38;;;23.02;;
41446;SDS011;27185;52.040;4.490;2022-12-11T16:53:59;40.58;;;20.88;;
41446;SDS011;27185;52.040;4.490;2022-12-11T16:56:44;45.72;;;23.42;;
41446;SDS011;27185;52.040;4.490;2022-12-11T16:59:30;48.80;;;22.55;;
41446;SDS011;27185;52.040;4.490;2022-12-11T17:02:15;48.28;;;23.40;;
41446;SDS011;27185;52.040;4.490;2022-12-11T17:05:02;42.83;;;22.77;;
41446;SDS011;27185;52.040;4.490;2022-12-11T17:07:48;40.40;;;20.52;;
41446;SDS011;27185;52.040;4.490;2022-12-11T17:10:37;42.85;;;20.77;;
41446;SDS011;27185;52.040;4.490;2022-12-11T17:13:23;40.85;;;21.27;;
41446;SDS011;27185;52.040;4.490;2022-12-11T17:16:14;43.88;;;20.92;;
41446;SDS011;27185;52.040;4.490;2022-12-11T17:19:00;41.60;;;20.85;;
41446;SDS011;27185;52.040;4.490;2022-12-11T17:21:47;35.67;;;18.98;;
41446;SDS011;27185;52.040;4.490;2022-12-11T17:24:34;37.03;;;19.67;;
41446;SDS011;27185;52.040;4.490;2022-12-11T17:27:19;36.80;;;19.58;;
41446;SDS011;27185;52.040;4.490;2022-12-11T17:30:05;34.20;;;19.40;;
41446;SDS011;27185;52.040;4.490;2022-12-11T17:32:51;39.17;;;20.65;;
41446;SDS011;27185;52.040;4.490;2022-12-11T17:35:37;33.35;;;18.92;;
41446;SDS011;27185;52.040;4.490;2022-12-11T17:38:22;34.45;;;18.25;;
41446;SDS011;27185;52.040;4.490;2022-12-11T17:41:08;37.83;;;21.05;;
41446;SDS011;27185;52.040;4.490;2022-12-11T17:43:55;33.63;;;19.73;;